Time;durP1;ratioP1;P1;durP2;ratioP2;P2;SDS_P1;SDS_P2;PMS_P1;PMS_P2;Temp;Humidity;BMP_temperature;BMP_pressure;BME280_temperature;BME280_humidity;BME280_pressure;Samples;Min_cycle;Max_cycle;Signal;HPM_P1;HPM_P2
2022/06/06 00:01:04;;;;;;;;;9.50;8.00;;;;;17.56;76.44;99568.66;5119305;28;8840;-63
2022/06/06 00:03:32;;;;;;;;;14.75;12.25;;;;;17.57;76.85;99559.56;5119759;28;8872;-63
2022/06/06 00:06:00;;;;;;;;;21.00;20.00;;;;;17.59;76.69;99568.31;5118152;28;8847;-63
2022/06/06 00:08:28;;;;;;;;;20.25;18.75;;;;;17.63;76.29;99569.59;5117768;28;8839;-64
2022/06/06 00:10:56;;;;;;;;;15.25;15.00;;;;;17.67;76.38;99584.41;5118865;28;8852;-64
2022/06/06 00:13:24;;;;;;;;;22.00;19.25;;;;;17.68;76.00;99567.25;5119053;28;8979;-64
2022/06/06 00:15:52;;;;;;;;;13.25;12.50;;;;;17.70;76.48;99565.19;5119639;28;8824;-64
2022/06/06 00:18:20;;;;;;;;;21.50;20.00;;;;;17.71;76.23;99587.59;5119222;28;8897;-64
2022/06/06 00:20:48;;;;;;;;;18.75;17.75;;;;;17.71;76.54;99574.97;5119244;28;8954;-64
2022/06/06 00:23:15;;;;;;;;;17.75;16.25;;;;;17.71;76.29;99584.91;5105106;28;8834;-64
2022/06/06 00:25:45;;;;;;;;;19.75;18.25;;;;;17.68;76.11;99588.78;5097946;28;8884;-64
2022/06/06 00:28:13;;;;;;;;;14.50;12.25;;;;;17.67;76.18;99578.19;5105446;28;8828;-64
2022/06/06 00:30:41;;;;;;;;;23.50;21.50;;;;;17.65;76.06;99582.91;5117937;28;8978;-64
2022/06/06 00:35:54;;;;;;;;;26.25;24.25;;;;;17.56;75.78;99584.81;5119192;28;8832;-64
2022/06/06 00:38:23;;;;;;;;;21.25;19.50;;;;;17.50;75.92;99577.44;5118525;28;8877;-64
2022/06/06 00:40:51;;;;;;;;;22.00;19.50;;;;;17.47;76.18;99577.75;5118989;28;8847;-65
2022/06/06 00:43:18;;;;;;;;;22.75;19.75;;;;;17.42;76.12;99572.09;5118885;28;8831;-63
2022/06/06 00:45:46;;;;;;;;;24.25;21.25;;;;;17.40;76.16;99584.03;5118306;28;8861;-64
2022/06/06 00:48:14;;;;;;;;;19.00;16.50;;;;;17.35;76.53;99579.13;5117978;28;8832;-63
2022/06/06 00:50:42;;;;;;;;;22.75;21.00;;;;;17.34;76.48;99584.69;5118510;28;8904;-64
2022/06/06 00:53:10;;;;;;;;;15.00;14.50;;;;;17.29;76.42;99584.34;5103388;28;8814;-64
2022/06/06 00:55:38;;;;;;;;;20.50;18.75;;;;;17.25;76.41;99597.31;5098370;28;8991;-64
2022/06/06 00:58:07;;;;;;;;;18.25;17.50;;;;;17.22;76.46;99592.28;5096983;28;8853;-64
2022/06/06 01:00:35;;;;;;;;;24.50;23.00;;;;;17.18;76.41;99593.66;5098323;28;8876;-64
2022/06/06 01:03:02;;;;;;;;;10.00;9.75;;;;;17.15;76.51;99602.06;5097937;28;8826;-64
2022/06/06 01:05:30;;;;;;;;;25.00;21.00;;;;;17.13;76.61;99606.78;5098019;28;8830;-64
2022/06/06 01:07:58;;;;;;;;;17.50;14.00;;;;;17.11;76.43;99607.97;5098172;28;8907;-63
2022/06/06 01:10:26;;;;;;;;;13.50;12.00;;;;;17.08;76.16;99600.25;5097848;28;8858;-64
2022/06/06 01:12:54;;;;;;;;;14.75;13.00;;;;;17.06;76.08;99607.63;5097211;28;8931;-64
2022/06/06 01:15:22;;;;;;;;;17.00;16.50;;;;;17.03;76.46;99611.53;5096977;28;8865;-63
2022/06/06 01:17:51;;;;;;;;;18.50;17.00;;;;;17.01;76.03;99616.22;5098015;28;8852;-64
2022/06/06 01:20:19;;;;;;;;;20.50;16.50;;;;;17.00;76.22;99598.41;5097732;28;8858;-64
2022/06/06 01:22:47;;;;;;;;;19.25;15.75;;;;;16.99;76.38;99612.00;5109146;28;8823;-63
2022/06/06 01:25:15;;;;;;;;;19.75;17.25;;;;;16.98;76.33;99604.97;5117134;28;8820;-64
2022/06/06 01:27:43;;;;;;;;;19.25;17.25;;;;;16.95;76.03;99621.44;5117965;28;8831;-64
2022/06/06 01:30:10;;;;;;;;;20.25;20.25;;;;;16.93;76.30;99608.16;5117584;28;8874;-64
2022/06/06 01:32:38;;;;;;;;;17.50;15.50;;;;;16.90;76.19;99608.50;5117581;28;8978;-64
2022/06/06 01:35:06;;;;;;;;;14.00;10.00;;;;;16.91;75.97;99609.34;5117901;28;8816;-63
2022/06/06 01:37:34;;;;;;;;;17.50;15.25;;;;;16.90;76.41;99619.28;5117763;28;8958;-64
2022/06/06 01:40:02;;;;;;;;;20.75;19.50;;;;;16.89;76.28;99614.91;5117432;28;8831;-64
2022/06/06 01:42:30;;;;;;;;;23.50;21.50;;;;;16.88;76.03;99623.13;5117008;28;9605;-68
2022/06/06 01:44:57;;;;;;;;;21.50;19.00;;;;;16.87;76.16;99618.78;5117761;28;8845;-64
2022/06/06 01:47:26;;;;;;;;;28.25;21.50;;;;;16.85;75.87;99620.81;5117750;28;8970;-64
2022/06/06 01:49:55;;;;;;;;;19.75;18.25;;;;;16.85;75.97;99618.09;5117325;28;8824;-64
2022/06/06 01:52:22;;;;;;;;;16.50;16.00;;;;;16.85;75.90;99621.63;5106518;28;8822;-64
2022/06/06 01:54:50;;;;;;;;;18.50;17.00;;;;;16.84;76.37;99621.78;5096511;28;8848;-64
2022/06/06 01:57:18;;;;;;;;;17.33;11.33;;;;;16.83;75.72;99620.97;5096701;28;8825;-63
2022/06/06 01:59:46;;;;;;;;;18.25;16.50;;;;;16.82;75.97;99616.59;5096529;28;8918;-63
2022/06/06 02:02:13;;;;;;;;;18.00;14.50;;;;;16.79;75.72;99616.91;5096880;28;8964;-64
2022/06/06 02:04:41;;;;;;;;;20.50;18.25;;;;;16.79;76.41;99618.78;5096983;28;8980;-64
2022/06/06 02:07:09;;;;;;;;;14.50;12.50;;;;;16.78;75.97;99628.69;5096985;28;9839;-64
2022/06/06 02:09:37;;;;;;;;;10.75;8.00;;;;;16.77;76.42;99621.63;5096593;28;8826;-64
2022/06/06 02:12:05;;;;;;;;;20.25;17.00;;;;;16.75;75.80;99620.97;5096631;28;8826;-64
2022/06/06 02:14:32;;;;;;;;;11.50;9.00;;;;;16.75;76.47;99623.66;5096466;28;8837;-64
2022/06/06 02:17:01;;;;;;;;;18.50;16.00;;;;;16.74;75.87;99624.66;5097918;28;8836;-64
2022/06/06 02:19:28;;;;;;;;;18.25;16.25;;;;;16.73;75.50;99623.00;5096292;28;8834;-65
2022/06/06 02:21:56;;;;;;;;;15.00;13.50;;;;;16.75;75.76;99626.34;5096392;28;8841;-64
2022/06/06 02:24:24;;;;;;;;;20.25;18.50;;;;;16.73;76.46;99620.31;5096319;28;8903;-64
2022/06/06 02:26:52;;;;;;;;;18.00;17.25;;;;;16.72;76.20;99623.97;5096205;28;8833;-64
2022/06/06 02:29:20;;;;;;;;;17.00;13.75;;;;;16.71;76.05;99624.16;5096393;28;8833;-64
2022/06/06 02:31:49;;;;;;;;;13.00;10.00;;;;;16.70;75.98;99622.50;5096618;28;8822;-64
2022/06/06 02:34:17;;;;;;;;;15.25;15.00;;;;;16.68;75.76;99629.88;5095655;28;8829;-64
2022/06/06 02:36:44;;;;;;;;;21.75;17.50;;;;;16.63;76.23;99626.84;5096572;28;8838;-64
2022/06/06 02:39:13;;;;;;;;;18.25;16.50;;;;;16.57;76.12;99632.91;5096247;28;8852;-64
2022/06/06 02:41:41;;;;;;;;;18.00;14.75;;;;;16.48;76.58;99640.09;5096131;28;8830;-64
2022/06/06 02:44:10;;;;;;;;;23.00;20.00;;;;;16.36;77.27;99638.72;5096070;28;9508;-65
2022/06/06 02:46:38;;;;;;;;;19.25;16.50;;;;;16.25;77.28;99639.03;5102572;28;8848;-64
2022/06/06 02:49:06;;;;;;;;;12.75;12.75;;;;;16.20;77.57;99637.84;5116747;28;8827;-64
2022/06/06 02:51:34;;;;;;;;;13.00;10.00;;;;;16.18;77.28;99635.31;5116312;28;8965;-64
2022/06/06 02:54:01;;;;;;;;;21.00;18.00;;;;;16.18;77.47;99643.38;5116491;28;8832;-63
2022/06/06 02:56:29;;;;;;;;;15.50;14.00;;;;;16.18;77.41;99638.00;5116684;28;8867;-63
2022/06/06 02:59:05;;;;;;;;;15.50;13.25;;;;;16.19;77.07;99645.06;5116290;28;8959;-65
2022/06/06 03:01:33;;;;;;;;;17.50;16.50;;;;;16.22;76.80;99643.06;5116560;28;8872;-64
2022/06/06 03:04:01;;;;;;;;;15.75;14.50;;;;;16.23;77.09;99642.88;5116884;28;9517;-64
2022/06/06 03:06:28;;;;;;;;;17.50;17.50;;;;;16.24;76.62;99636.50;5116257;28;8873;-63
2022/06/06 03:08:56;;;;;;;;;19.00;18.00;;;;;16.25;77.01;99648.97;5116410;28;8828;-64
2022/06/06 03:11:24;;;;;;;;;19.00;14.00;;;;;16.26;77.38;99648.78;5116150;28;8844;-64
2022/06/06 03:13:52;;;;;;;;;20.75;18.25;;;;;16.27;76.79;99652.31;5119972;28;9501;-64
2022/06/06 03:21:52;;;;;;;;;14.75;12.00;;;;;16.28;76.65;99641.41;5100000;28;8850;-64
2022/06/06 03:24:20;;;;;;;;;16.50;15.00;;;;;16.28;76.33;99638.72;5099608;28;8838;-64
2022/06/06 03:26:48;;;;;;;;;19.75;18.00;;;;;16.30;76.48;99636.69;5099384;28;8880;-64
2022/06/06 03:29:16;;;;;;;;;16.00;15.25;;;;;16.32;77.12;99650.81;5099810;28;8837;-64
2022/06/06 03:31:45;;;;;;;;;20.25;18.00;;;;;16.34;76.59;99645.28;5099675;28;8869;-64
2022/06/06 03:34:21;;;;;;;;;17.75;16.25;;;;;16.36;76.47;99643.25;5099734;28;8834;-64
2022/06/06 03:36:49;;;;;;;;;19.50;18.00;;;;;16.38;76.10;99647.50;5099906;28;8869;-64
2022/06/06 03:39:17;;;;;;;;;18.00;14.50;;;;;16.39;76.38;99657.25;5099703;28;8822;-63
2022/06/06 03:41:44;;;;;;;;;20.75;19.75;;;;;16.40;76.20;99650.84;5099175;28;8842;-63
2022/06/06 03:44:12;;;;;;;;;13.75;10.75;;;;;16.41;76.33;99651.72;5099302;28;8926;-64
2022/06/06 03:46:40;;;;;;;;;18.75;16.50;;;;;16.43;76.07;99649.69;5106994;28;8804;-64
2022/06/06 03:49:08;;;;;;;;;17.50;15.00;;;;;16.45;76.00;99644.97;5120124;28;8851;-64
2022/06/06 03:51:36;;;;;;;;;13.00;9.50;;;;;16.48;76.01;99647.34;5120195;28;9469;-64
2022/06/06 03:54:04;;;;;;;;;11.50;10.50;;;;;16.49;76.05;99641.78;5119669;28;9636;-64
2022/06/06 03:56:32;;;;;;;;;12.75;11.50;;;;;16.51;75.84;99642.47;5119534;28;8824;-64
2022/06/06 03:59:00;;;;;;;;;15.75;15.25;;;;;16.51;75.78;99645.16;5119063;28;8820;-65
2022/06/06 04:01:28;;;;;;;;;18.25;16.50;;;;;16.50;76.08;99637.25;5118057;28;8911;-64
2022/06/06 04:03:55;;;;;;;;;20.00;18.50;;;;;16.50;75.46;99638.09;5117621;28;8916;-64
2022/06/06 04:06:23;;;;;;;;;15.50;14.75;;;;;16.50;75.76;99642.63;5116294;28;8835;-65
2022/06/06 04:08:51;;;;;;;;;15.00;15.00;;;;;16.49;76.07;99640.97;5097093;28;8861;-63
2022/06/06 04:11:19;;;;;;;;;15.50;13.50;;;;;16.48;75.93;99644.66;5097148;28;8861;-64
2022/06/06 04:13:47;;;;;;;;;13.50;12.50;;;;;16.48;76.20;99648.16;5098248;28;8860;-63
2022/06/06 04:16:15;;;;;;;;;12.25;12.25;;;;;16.48;76.18;99652.72;5098940;28;8834;-64
2022/06/06 04:18:43;;;;;;;;;19.25;16.00;;;;;16.46;75.98;99658.25;5099073;28;8845;-64
2022/06/06 04:21:11;;;;;;;;;18.00;13.00;;;;;16.46;76.00;99655.56;5099238;28;8842;-64
2022/06/06 04:23:39;;;;;;;;;18.00;15.75;;;;;16.46;76.09;99660.94;5097761;28;8850;-64
2022/06/06 04:26:07;;;;;;;;;14.25;13.25;;;;;16.45;75.94;99664.66;5098371;28;8850;-64
2022/06/06 04:28:35;;;;;;;;;12.00;11.50;;;;;16.45;76.06;99664.66;5098641;28;8840;-64
2022/06/06 04:31:03;;;;;;;;;9.00;9.00;;;;;16.46;77.05;99657.41;5116250;28;8840;-64
2022/06/06 04:33:30;;;;;;;;;14.25;13.75;;;;;16.48;76.21;99660.78;5119194;28;8847;-64
2022/06/06 04:35:58;;;;;;;;;12.00;10.50;;;;;16.49;76.17;99659.78;5118779;28;8812;-64
2022/06/06 04:38:26;;;;;;;;;14.75;12.00;;;;;16.52;76.54;99662.97;5118930;28;8839;-64
2022/06/06 04:40:54;;;;;;;;;15.25;12.50;;;;;16.56;75.74;99679.63;5119243;28;8820;-63
2022/06/06 04:43:22;;;;;;;;;13.50;13.00;;;;;16.57;76.50;99674.06;5118712;28;8831;-64
2022/06/06 04:45:50;;;;;;;;;11.50;10.00;;;;;16.60;75.93;99665.66;5118597;28;8867;-64
2022/06/06 04:48:20;;;;;;;;;10.25;9.00;;;;;16.64;75.71;99661.63;5118746;28;9559;-64
2022/06/06 04:50:55;;;;;;;;;12.75;10.00;;;;;16.68;76.44;99667.50;5118760;28;8824;-64
2022/06/06 04:53:23;;;;;;;;;11.60;11.20;;;;;16.71;75.86;99673.41;5118665;28;8812;-63
2022/06/06 04:55:51;;;;;;;;;12.50;9.75;;;;;16.74;75.82;99677.59;5118692;28;8912;-65
2022/06/06 04:58:19;;;;;;;;;9.00;7.00;;;;;16.77;75.28;99682.63;5118900;28;8828;-63
2022/06/06 05:00:47;;;;;;;;;11.00;9.75;;;;;16.78;75.46;99685.16;5101454;28;8838;-64
2022/06/06 05:03:14;;;;;;;;;8.00;7.50;;;;;16.79;75.27;99678.78;5098322;28;8846;-64
2022/06/06 05:05:42;;;;;;;;;11.00;8.33;;;;;16.82;75.37;99681.16;5097927;28;8815;-63
2022/06/06 05:08:10;;;;;;;;;9.25;8.00;;;;;16.87;75.51;99696.78;5098281;28;8848;-63
2022/06/06 05:10:38;;;;;;;;;9.25;9.00;;;;;16.88;75.10;99693.94;5098065;28;8856;-64
2022/06/06 05:13:06;;;;;;;;;9.00;9.00;;;;;16.89;75.13;99701.00;5097792;28;9522;-64
2022/06/06 05:15:34;;;;;;;;;2.00;1.00;;;;;16.90;75.04;99693.75;5097526;28;8826;-64
2022/06/06 05:18:02;;;;;;;;;6.75;6.00;;;;;16.90;74.75;99699.13;5098336;28;8834;-64
2022/06/06 05:20:29;;;;;;;;;12.00;11.50;;;;;16.91;75.10;99695.41;5097326;28;8821;-64
2022/06/06 05:22:57;;;;;;;;;6.40;6.20;;;;;16.92;75.07;99697.94;5097877;28;8852;-64
2022/06/06 05:25:25;;;;;;;;;7.50;6.50;;;;;16.93;75.26;99704.19;5097379;28;8830;-66
2022/06/06 05:28:00;;;;;;;;;7.00;6.75;;;;;16.97;75.39;99706.38;5097789;28;8822;-63
2022/06/06 05:30:28;;;;;;;;;8.50;7.00;;;;;17.04;74.87;99702.00;5110399;28;8832;-63
2022/06/06 05:32:56;;;;;;;;;9.00;8.00;;;;;17.12;74.75;99696.63;5118258;28;8834;-64
2022/06/06 05:35:23;;;;;;;;;6.50;6.00;;;;;17.17;74.20;99694.22;5118060;28;8828;-64
2022/06/06 05:37:52;;;;;;;;;2.20;2.20;;;;;17.19;73.99;99699.44;5117737;28;8852;-63
2022/06/06 05:40:20;;;;;;;;;6.40;6.40;;;;;17.21;74.35;99683.97;5117675;28;8826;-63
2022/06/06 05:42:48;;;;;;;;;6.60;6.00;;;;;17.25;74.14;99688.00;5117820;28;8962;-63
2022/06/06 05:45:16;;;;;;;;;4.00;3.00;;;;;17.30;73.63;99691.88;5117241;28;8832;-63
2022/06/06 05:47:44;;;;;;;;;5.60;4.80;;;;;17.36;73.63;99695.72;5117569;28;8824;-63
2022/06/06 05:50:12;;;;;;;;;6.80;6.40;;;;;17.40;73.58;99695.25;5117459;28;8828;-63
2022/06/06 05:52:39;;;;;;;;;5.80;4.40;;;;;17.44;73.55;99693.91;5117171;28;8824;-63
2022/06/06 05:55:07;;;;;;;;;6.80;6.60;;;;;17.48;73.21;99695.22;5117226;28;8835;-63
2022/06/06 05:57:35;;;;;;;;;6.00;4.00;;;;;17.50;72.86;99703.13;5115993;28;8820;-63
2022/06/06 06:00:04;;;;;;;;;3.80;3.80;;;;;17.50;72.86;99706.69;5102789;28;9463;-63
2022/06/06 06:02:32;;;;;;;;;9.00;7.00;;;;;17.49;73.09;99701.47;5094904;28;8861;-64
2022/06/06 06:04:59;;;;;;;;;9.20;7.40;;;;;17.47;73.58;99709.69;5094902;28;8841;-64
2022/06/06 06:07:28;;;;;;;;;5.20;4.00;;;;;17.46;72.89;99715.28;5095342;28;8830;-64
2022/06/06 06:09:57;;;;;;;;;9.20;6.60;;;;;17.47;73.42;99709.69;5095032;28;9592;-64
2022/06/06 06:12:25;;;;;;;;;6.40;4.80;;;;;17.47;73.46;99708.88;5096144;28;8826;-64
2022/06/06 06:14:52;;;;;;;;;7.40;6.60;;;;;17.49;73.08;99715.78;5096473;28;8862;-64
2022/06/06 06:17:21;;;;;;;;;6.00;4.40;;;;;17.51;72.96;99721.81;5096851;28;8825;-64
2022/06/06 06:19:48;;;;;;;;;4.40;4.40;;;;;17.45;72.78;99724.38;5096708;28;8833;-64
2022/06/06 06:22:16;;;;;;;;;6.40;6.40;;;;;17.35;73.02;99726.34;5096695;28;8846;-64
2022/06/06 06:24:44;;;;;;;;;3.00;1.00;;;;;17.26;73.39;99720.16;5096519;28;8846;-64
2022/06/06 06:27:12;;;;;;;;;4.40;3.80;;;;;17.31;72.89;99727.72;5093216;28;9696;-64
2022/06/06 06:29:39;;;;;;;;;9.00;7.00;;;;;17.46;72.79;99728.75;5104699;28;8806;-64
2022/06/06 06:32:08;;;;;;;;;6.40;6.20;;;;;17.74;71.96;99733.56;5116903;28;8814;-63
2022/06/06 06:34:36;;;;;;;;;8.20;6.80;;;;;17.90;71.52;99729.97;5116650;28;8833;-64
2022/06/06 06:37:03;;;;;;;;;6.40;6.00;;;;;17.96;71.49;99732.81;5116480;28;8832;-64
2022/06/06 06:39:31;;;;;;;;;3.60;3.00;;;;;18.04;70.85;99732.78;5116770;28;8817;-64
2022/06/06 06:42:00;;;;;;;;;5.20;5.20;;;;;18.04;70.54;99730.09;5116584;28;8826;-64
2022/06/06 06:44:29;;;;;;;;;4.80;4.80;;;;;17.98;70.76;99728.06;5116535;28;8822;-63
2022/06/06 06:46:57;;;;;;;;;6.00;6.00;;;;;17.90;70.72;99733.50;5116056;28;8849;-64
2022/06/06 06:49:25;;;;;;;;;6.00;6.00;;;;;17.91;70.47;99737.06;5116582;28;8955;-64
2022/06/06 06:51:53;;;;;;;;;4.80;4.00;;;;;17.98;70.21;99727.25;5116281;28;9009;-64
2022/06/06 06:54:21;;;;;;;;;6.00;6.00;;;;;18.10;70.01;99733.94;5115418;28;8841;-64
2022/06/06 06:56:48;;;;;;;;;4.40;4.40;;;;;18.27;69.55;99731.00;5114209;28;8839;-65
2022/06/06 06:59:19;;;;;;;;;7.40;7.40;;;;;18.37;69.43;99731.63;5109808;28;8840;-65
2022/06/06 07:08:32;;;;;;;;;3.60;3.60;;;;;18.54;68.79;99732.41;5096071;28;8994;-64
2022/06/06 07:10:14;;;;;;;;;3.60;3.00;;;;;19.10;66.80;99727.44;5096111;28;8832;-64
2022/06/06 07:12:43;;;;;;;;;6.60;5.60;;;;;19.24;66.53;99725.81;5096601;28;8847;-65
2022/06/06 07:15:11;;;;;;;;;6.00;4.00;;;;;19.28;66.53;99740.66;5094487;28;8866;-64
2022/06/06 07:17:38;;;;;;;;;4.40;3.60;;;;;19.20;65.65;99733.44;5095788;28;8824;-64
2022/06/06 07:20:06;;;;;;;;;5.60;4.00;;;;;19.19;66.13;99730.94;5095933;28;8828;-64
2022/06/06 07:22:59;;;;;;;;;4.00;3.60;;;;;19.22;66.08;99742.25;5095936;28;8859;-64
2022/06/06 07:25:22;;;;;;;;;4.00;3.80;;;;;19.29;65.50;99734.22;5093659;28;8873;-64
2022/06/06 07:27:50;;;;;;;;;6.00;4.00;;;;;19.30;66.17;99744.88;5094749;28;8863;-64
2022/06/06 07:30:18;;;;;;;;;3.80;3.80;;;;;19.27;65.67;99737.09;5107782;28;8840;-64
2022/06/06 07:32:46;;;;;;;;;6.00;5.20;;;;;19.22;65.95;99750.34;5115369;28;8832;-65
2022/06/06 07:35:13;;;;;;;;;7.40;6.00;;;;;19.16;66.13;99740.22;5116138;28;8842;-64
2022/06/06 07:37:43;;;;;;;;;7.60;7.60;;;;;19.11;65.86;99752.59;5115604;28;9501;-65
2022/06/06 07:40:11;;;;;;;;;6.60;6.60;;;;;19.04;66.47;99751.63;5114945;28;8840;-64
2022/06/06 07:42:39;;;;;;;;;7.40;7.40;;;;;19.00;65.97;99761.09;5114853;28;8849;-64
2022/06/06 07:45:06;;;;;;;;;7.00;7.00;;;;;18.98;65.87;99750.47;5115385;28;8843;-64
2022/06/06 07:47:35;;;;;;;;;6.60;6.60;;;;;18.96;66.56;99757.91;5115242;28;8832;-64
2022/06/06 07:50:03;;;;;;;;;3.00;2.40;;;;;19.02;66.42;99749.09;5115041;28;8862;-64
2022/06/06 07:52:31;;;;;;;;;6.00;6.00;;;;;19.01;65.81;99747.44;5115282;28;8848;-63
2022/06/06 07:54:59;;;;;;;;;9.60;8.20;;;;;19.02;65.95;99756.34;5115065;28;8861;-65
2022/06/06 07:57:27;;;;;;;;;7.20;7.00;;;;;19.04;65.77;99747.06;5114983;28;8830;-65
2022/06/06 07:59:55;;;;;;;;;8.20;6.80;;;;;19.01;65.47;99742.03;5108549;28;8814;-65
2022/06/06 08:02:22;;;;;;;;;4.00;4.00;;;;;19.06;65.26;99736.91;5099192;28;8844;-64
2022/06/06 08:04:50;;;;;;;;;6.40;5.60;;;;;19.13;64.56;99745.97;5099064;28;8960;-64
2022/06/06 08:07:24;;;;;;;;;3.40;3.40;;;;;19.21;64.56;99750.50;5099178;28;8834;-64
2022/06/06 08:09:51;;;;;;;;;7.20;6.80;;;;;19.34;63.77;99754.25;5098867;28;8829;-64
2022/06/06 08:12:19;;;;;;;;;5.40;4.60;;;;;19.53;63.37;99750.22;5098524;28;8845;-64
2022/06/06 08:14:49;;;;;;;;;2.00;2.00;;;;;19.68;63.08;99746.53;5098256;28;8834;-64
2022/06/06 08:17:17;;;;;;;;;4.60;4.60;;;;;19.89;62.61;99748.50;5098223;28;8830;-64
2022/06/06 08:19:45;;;;;;;;;1.60;1.20;;;;;20.05;62.50;99743.78;5098426;28;8871;-64
2022/06/06 08:22:12;;;;;;;;;4.20;4.00;;;;;20.21;61.89;99745.44;5098347;28;8846;-65
2022/06/06 08:24:40;;;;;;;;;4.20;4.20;;;;;20.24;61.87;99737.78;5098795;28;8826;-64
2022/06/06 08:27:14;;;;;;;;;4.40;4.00;;;;;20.35;61.67;99736.47;5099009;28;8927;-64
2022/06/06 08:29:42;;;;;;;;;4.20;4.20;;;;;20.44;61.08;99733.47;5099796;28;8819;-64
2022/06/06 08:32:10;;;;;;;;;2.00;2.00;;;;;20.48;60.88;99737.47;5098575;28;8868;-64
2022/06/06 08:34:38;;;;;;;;;5.00;4.40;;;;;20.53;61.29;99735.03;5098563;28;8826;-64
2022/06/06 08:37:06;;;;;;;;;4.00;4.00;;;;;20.53;60.66;99734.19;5098048;28;8950;-64
2022/06/06 08:39:34;;;;;;;;;4.00;4.00;;;;;20.55;60.45;99734.84;5098270;28;8853;-64
2022/06/06 08:42:02;;;;;;;;;6.80;5.00;;;;;20.58;60.69;99723.63;5098212;28;8822;-65
2022/06/06 08:44:30;;;;;;;;;1.00;1.00;;;;;20.66;60.22;99718.09;5098282;28;8849;-64
2022/06/06 08:46:58;;;;;;;;;4.80;4.00;;;;;20.74;59.83;99719.66;5098378;28;8865;-65
2022/06/06 08:52:11;;;;;;;;;6.20;4.00;;;;;20.92;59.20;99714.69;5098073;28;8931;-64
2022/06/06 08:54:40;;;;;;;;;1.80;1.80;;;;;20.94;59.21;99714.47;5098088;28;8825;-64
2022/06/06 08:57:08;;;;;;;;;1.80;1.80;;;;;21.03;58.44;99707.91;5097662;28;8853;-64
2022/06/06 08:59:35;;;;;;;;;2.00;1.60;;;;;21.20;58.17;99702.00;5113257;28;8831;-65
2022/06/06 09:02:03;;;;;;;;;2.40;1.00;;;;;21.33;58.59;99702.13;5117823;28;8962;-65
2022/06/06 09:04:31;;;;;;;;;2.00;1.60;;;;;21.43;58.07;99704.50;5117828;28;8848;-64
2022/06/06 09:06:59;;;;;;;;;2.00;2.00;;;;;21.48;57.48;99708.28;5118559;28;8828;-64
2022/06/06 09:09:28;;;;;;;;;1.00;1.00;;;;;21.54;57.52;99717.50;5117937;28;8823;-65
2022/06/06 09:11:55;;;;;;;;;1.60;1.60;;;;;21.50;56.87;99711.63;5118461;28;8831;-65
2022/06/06 09:14:23;;;;;;;;;2.00;2.00;;;;;21.55;57.39;99720.00;5117761;28;8838;-65
2022/06/06 09:16:51;;;;;;;;;0.80;0.80;;;;;21.56;56.81;99715.44;5116960;28;8966;-65
2022/06/06 09:19:19;;;;;;;;;2.00;1.40;;;;;21.55;56.82;99714.59;5117785;28;8831;-65
2022/06/06 09:21:47;;;;;;;;;0.60;0.60;;;;;21.62;56.63;99725.47;5117226;28;9773;-65
2022/06/06 09:24:14;;;;;;;;;1.20;1.20;;;;;21.64;56.03;99726.13;5117676;28;8864;-64
2022/06/06 09:26:43;;;;;;;;;0.00;0.00;;;;;21.66;55.75;99715.97;5117125;28;8827;-64
2022/06/06 09:29:11;;;;;;;;;1.00;1.00;;;;;21.70;55.88;99714.53;5103112;28;8837;-64
2022/06/06 09:31:38;;;;;;;;;2.00;2.00;;;;;21.80;55.17;99715.84;5095832;28;8976;-69
2022/06/06 09:34:06;;;;;;;;;0.00;0.00;;;;;21.88;55.49;99723.00;5096670;28;8864;-64
2022/06/06 09:36:36;;;;;;;;;1.00;1.00;;;;;21.87;55.01;99715.91;5097259;28;8834;-64
2022/06/06 09:39:04;;;;;;;;;0.40;0.40;;;;;21.81;54.94;99725.66;5097286;28;9576;-65
2022/06/06 09:41:32;;;;;;;;;0.00;0.00;;;;;21.90;53.86;99721.75;5097302;28;8833;-64
2022/06/06 09:44:00;;;;;;;;;0.00;0.00;;;;;21.97;53.73;99713.66;5096292;28;8865;-66
2022/06/06 09:46:28;;;;;;;;;0.00;0.00;;;;;22.04;53.17;99717.25;5096815;28;8857;-65
2022/06/06 09:48:58;;;;;;;;;0.40;0.40;;;;;21.95;53.39;99727.41;5096910;28;8972;-64
2022/06/06 09:51:26;;;;;;;;;0.00;0.00;;;;;21.85;53.41;99720.69;5096921;28;8818;-64
2022/06/06 09:59:22;;;;;;;;;1.00;1.00;;;;;22.29;52.22;99707.53;5111369;28;8827;-64
2022/06/06 10:01:50;;;;;;;;;1.00;0.00;;;;;22.60;51.17;99716.88;5116217;28;8856;-66
2022/06/06 10:04:18;;;;;;;;;0.00;0.00;;;;;22.46;51.67;99709.75;5115431;28;8908;-65
2022/06/06 10:06:46;;;;;;;;;1.00;1.00;;;;;22.22;52.27;99718.38;5115208;28;8843;-65
2022/06/06 10:09:14;;;;;;;;;0.60;0.20;;;;;22.36;51.90;99709.25;5116189;28;8840;-65
2022/06/06 10:11:42;;;;;;;;;0.20;0.20;;;;;22.59;51.49;99701.66;5116770;28;8950;-65
2022/06/06 10:14:10;;;;;;;;;0.40;0.40;;;;;22.63;51.62;99704.78;5117403;28;10350;-65
2022/06/06 10:16:37;;;;;;;;;1.00;1.00;;;;;22.43;51.45;99706.59;5117146;28;8834;-65
2022/06/06 10:19:05;;;;;;;;;0.80;0.80;;;;;22.20;52.50;99703.34;5117308;28;8835;-65
2022/06/06 10:21:33;;;;;;;;;1.00;1.00;;;;;22.06;52.80;99696.16;5115706;28;8824;-65
2022/06/06 10:24:01;;;;;;;;;0.80;0.80;;;;;22.03;52.88;99699.28;5116279;28;8952;-65
2022/06/06 10:26:29;;;;;;;;;1.20;1.20;;;;;22.03;52.67;99696.59;5116654;28;8832;-65
2022/06/06 10:29:03;;;;;;;;;0.00;0.00;;;;;21.92;52.50;99700.69;5114804;28;8820;-65
2022/06/06 10:31:32;;;;;;;;;2.00;2.00;;;;;21.74;52.53;99704.97;5115575;28;8851;-65
2022/06/06 10:34:00;;;;;;;;;1.80;1.80;;;;;21.50;52.82;99713.53;5115372;28;8838;-65
2022/06/06 10:36:28;;;;;;;;;1.00;1.00;;;;;21.25;53.44;99723.13;5115390;28;8842;-65
2022/06/06 10:38:56;;;;;;;;;1.00;1.00;;;;;21.00;53.81;99725.38;5115327;28;8824;-65
2022/06/06 10:41:24;;;;;;;;;1.20;1.20;;;;;20.45;54.99;99739.69;5115323;28;8874;-65
2022/06/06 10:43:52;;;;;;;;;1.00;1.00;;;;;19.90;55.94;99742.91;5115139;28;8861;-64
2022/06/06 10:46:20;;;;;;;;;0.40;0.40;;;;;19.79;56.03;99737.94;5115000;28;8840;-64
2022/06/06 10:48:48;;;;;;;;;1.00;1.00;;;;;20.05;55.45;99735.66;5116071;28;8856;-65
2022/06/06 10:54:01;;;;;;;;;1.00;0.00;;;;;21.16;52.94;99729.69;5116449;28;8852;-65
2022/06/06 10:56:29;;;;;;;;;1.00;1.00;;;;;21.69;52.25;99723.69;5115980;28;8828;-65
2022/06/06 10:58:57;;;;;;;;;1.00;1.00;;;;;21.95;51.63;99721.16;5105631;28;8822;-65
2022/06/06 11:01:25;;;;;;;;;1.00;1.00;;;;;22.22;51.16;99718.38;5095647;28;8838;-65
2022/06/06 11:03:52;;;;;;;;;0.60;0.60;;;;;22.40;51.33;99720.56;5095038;28;8946;-65
2022/06/06 11:06:20;;;;;;;;;1.00;1.00;;;;;22.94;50.03;99705.06;5094997;28;9539;-64
2022/06/06 11:08:48;;;;;;;;;0.80;0.80;;;;;23.55;48.64;99714.75;5096018;28;8868;-64
2022/06/06 11:11:16;;;;;;;;;1.20;1.20;;;;;24.20;47.94;99712.75;5095577;28;8834;-64
2022/06/06 11:13:44;;;;;;;;;0.00;0.00;;;;;24.90;46.94;99703.66;5095662;28;8910;-64
2022/06/06 11:16:12;;;;;;;;;2.00;2.00;;;;;25.49;45.92;99709.53;5095695;28;8842;-65
2022/06/06 11:18:42;;;;;;;;;0.60;0.00;;;;;25.62;45.79;99704.78;5094771;28;8850;-66
2022/06/06 11:21:10;;;;;;;;;0.80;0.80;;;;;25.68;45.63;99698.44;5093803;28;9616;-65
2022/06/06 11:23:40;;;;;;;;;0.40;0.40;;;;;25.86;45.11;99702.03;5095083;28;8850;-65
2022/06/06 11:26:09;;;;;;;;;1.00;1.00;;;;;26.02;45.66;99701.47;5094445;28;8837;-66
2022/06/06 11:28:36;;;;;;;;;0.00;0.00;;;;;25.59;45.59;99700.59;5098226;28;8836;-66
2022/06/06 11:31:04;;;;;;;;;0.20;0.00;;;;;25.16;46.72;99693.41;5114825;28;8846;-66
2022/06/06 11:33:32;;;;;;;;;1.00;1.00;;;;;25.38;46.60;99680.25;5117233;28;8859;-65
2022/06/06 11:36:00;;;;;;;;;0.40;0.00;;;;;26.06;45.41;99667.19;5119797;28;8836;-65
2022/06/06 11:38:29;;;;;;;;;5.80;5.80;;;;;26.66;43.79;99671.69;5119979;28;8832;-64
2022/06/06 11:40:57;;;;;;;;;2.00;2.00;;;;;26.73;43.94;99691.53;5119203;28;8816;-65
2022/06/06 11:43:24;;;;;;;;;1.00;0.00;;;;;26.27;44.71;99680.38;5119859;28;8815;-65
2022/06/06 11:45:53;;;;;;;;;0.20;0.20;;;;;25.83;45.57;99686.13;5119110;28;8844;-65
2022/06/06 11:48:21;;;;;;;;;1.00;1.00;;;;;25.43;46.19;99684.00;5119145;28;8835;-66
2022/06/06 11:50:48;;;;;;;;;0.40;0.40;;;;;25.04;46.62;99684.25;5119289;28;8840;-64
2022/06/06 11:53:26;;;;;;;;;1.00;1.00;;;;;24.58;47.89;99685.63;5119504;28;8843;-64
2022/06/06 11:55:54;;;;;;;;;0.00;0.00;;;;;24.57;47.37;99682.03;5118644;28;8827;-65
2022/06/06 11:58:22;;;;;;;;;2.00;2.00;;;;;24.39;47.40;99672.88;5113417;28;8960;-64
2022/06/06 12:00:50;;;;;;;;;1.00;1.00;;;;;24.21;47.85;99678.22;5098267;28;8862;-65
2022/06/06 12:03:18;;;;;;;;;11.00;8.60;;;;;23.77;48.91;99688.97;5098512;28;8972;-65